createdAt,value
2022-08-16T00:01:41.091Z,17.45
2022-08-16T00:04:09.625Z,17.40
2022-08-16T00:06:39.204Z,18.15
2022-08-16T00:09:06.882Z,17.45
2022-08-16T00:11:33.522Z,16.67
2022-08-16T00:14:00.162Z,17.20
2022-08-16T00:17:00.824Z,18.05
2022-08-16T00:19:22.774Z,18.45
2022-08-16T00:21:52.220Z,19.60
2022-08-16T00:24:32.285Z,18.15
2022-08-16T00:27:00.749Z,17.27
2022-08-16T00:29:30.009Z,18.83
2022-08-16T00:32:01.470Z,20.35
2022-08-16T00:34:44.498Z,18.40
2022-08-16T00:37:20.157Z,18.42
2022-08-16T00:39:57.261Z,18.35
2022-08-16T00:42:30.259Z,18.13
2022-08-16T00:45:08.673Z,18.17
2022-08-16T00:47:37.083Z,19.90
2022-08-16T00:50:04.532Z,20.27
2022-08-16T00:52:35.935Z,18.67
2022-08-16T00:55:02.564Z,20.02
2022-08-16T00:57:58.327Z,19.17
2022-08-16T01:00:19.890Z,18.75
2022-08-16T01:02:50.379Z,18.98
2022-08-16T01:05:16.885Z,18.73
2022-08-16T01:07:51.263Z,19.92
2022-08-16T01:10:20.149Z,19.45
2022-08-16T01:12:46.856Z,20.50
2022-08-16T01:15:14.635Z,19.08
2022-08-16T01:17:42.171Z,18.65
2022-08-16T01:20:24.163Z,19.25
2022-08-16T01:23:08.826Z,18.77
2022-08-16T01:25:37.023Z,18.60
2022-08-16T01:28:07.433Z,20.20
2022-08-16T01:30:36.762Z,19.10
2022-08-16T01:33:14.791Z,20.45
2022-08-16T01:35:42.178Z,19.42
2022-08-16T01:38:25.762Z,19.38
2022-08-16T01:40:57.642Z,18.80
2022-08-16T01:43:28.730Z,20.70
2022-08-16T01:45:58.672Z,19.75
2022-08-16T01:48:27.611Z,19.92
2022-08-16T01:51:08.857Z,20.25
2022-08-16T01:53:41.985Z,21.75
2022-08-16T01:56:24.198Z,19.20
2022-08-16T01:58:51.835Z,19.50
2022-08-16T02:01:18.508Z,20.23
2022-08-16T02:03:45.325Z,17.60
2022-08-16T02:06:34.209Z,20.77
2022-08-16T02:09:02.248Z,19.92
2022-08-16T02:11:48.890Z,19.83
2022-08-16T02:14:21.620Z,20.15
2022-08-16T02:16:48.675Z,20.05
2022-08-16T02:19:17.540Z,20.10
2022-08-16T02:22:07.933Z,20.42
2022-08-16T02:24:34.323Z,18.13
2022-08-16T02:27:08.399Z,20.40
2022-08-16T02:29:34.821Z,18.45
2022-08-16T02:32:03.527Z,20.30
2022-08-16T02:34:33.036Z,20.63
2022-08-16T02:37:07.461Z,20.20
2022-08-16T02:39:34.053Z,19.02
2022-08-16T02:42:00.471Z,17.95
2022-08-16T02:44:28.442Z,18.25
2022-08-16T02:46:55.102Z,18.70
2022-08-16T02:49:57.989Z,19.70
2022-08-16T02:52:10.559Z,20.23
2022-08-16T02:54:43.683Z,20.65
2022-08-16T02:57:10.233Z,20.58
2022-08-16T02:59:39.760Z,19.77
2022-08-16T03:02:08.994Z,20.63
2022-08-16T03:04:50.632Z,21.02
2022-08-16T03:07:27.718Z,20.13
2022-08-16T03:09:54.387Z,20.60
2022-08-16T03:12:21.160Z,18.55
2022-08-16T03:14:57.010Z,21.13
2022-08-16T03:17:23.417Z,22.02
2022-08-16T03:20:02.430Z,18.63
2022-08-16T03:25:00.766Z,21.08
2022-08-16T03:27:32.364Z,19.77
2022-08-16T03:30:02.418Z,19.40
2022-08-16T03:32:43.623Z,19.10
2022-08-16T03:35:10.101Z,19.92
2022-08-16T03:38:03.292Z,19.42
2022-08-16T03:40:23.512Z,18.05
2022-08-16T03:43:18.751Z,18.77
2022-08-16T03:45:48.839Z,20.13
2022-08-16T03:48:19.746Z,18.75
2022-08-16T03:50:59.530Z,20.27
2022-08-16T03:53:37.622Z,18.83
2022-08-16T03:56:04.898Z,20.05
2022-08-16T03:58:33.317Z,20.38
2022-08-16T04:01:00.145Z,20.95
2022-08-16T04:03:26.554Z,22.70
2022-08-16T04:05:56.460Z,19.75
2022-08-16T04:08:24.578Z,21.77
2022-08-16T04:10:54.877Z,19.42
2022-08-16T04:13:58.848Z,19.58
2022-08-16T04:16:09.319Z,19.20
2022-08-16T04:18:54.350Z,18.90
2022-08-16T04:21:29.805Z,20.20
2022-08-16T04:23:56.270Z,18.85
2022-08-16T04:26:22.661Z,18.58
2022-08-16T04:28:53.697Z,18.38
2022-08-16T04:31:23.664Z,19.23
2022-08-16T04:33:50.925Z,18.55
2022-08-16T04:36:20.103Z,18.40
2022-08-16T04:38:47.283Z,19.38
2022-08-16T04:41:17.242Z,18.92
2022-08-16T04:43:44.332Z,18.83
2022-08-16T04:47:00.019Z,17.70
2022-08-16T04:48:57.158Z,17.83
2022-08-16T04:51:24.122Z,18.27
2022-08-16T04:53:52.581Z,16.40
2022-08-16T04:56:19.647Z,16.92
2022-08-16T04:58:48.865Z,17.08
2022-08-16T05:01:15.558Z,17.38
2022-08-16T05:03:59.776Z,15.77
2022-08-16T05:06:42.208Z,16.05
2022-08-16T05:09:12.096Z,15.70
2022-08-16T05:11:40.949Z,14.95
2022-08-16T05:14:07.524Z,14.20
2022-08-16T05:16:35.892Z,14.63
2022-08-16T05:19:02.338Z,13.73
2022-08-16T05:21:38.142Z,13.57
2022-08-16T05:24:06.928Z,13.52
2022-08-16T05:26:34.151Z,13.45
2022-08-16T05:29:03.748Z,12.68
2022-08-16T05:31:31.568Z,13.43
2022-08-16T05:33:59.262Z,13.52
2022-08-16T05:36:34.311Z,13.18
2022-08-16T05:39:07.964Z,12.18
2022-08-16T05:41:45.399Z,12.60
2022-08-16T05:44:24.134Z,13.35
2022-08-16T05:46:55.871Z,11.80
2022-08-16T05:49:23.254Z,11.55
2022-08-16T05:51:50.299Z,11.73
2022-08-16T05:54:17.622Z,11.80
2022-08-16T05:56:51.665Z,12.65
2022-08-16T05:59:18.669Z,11.95
2022-08-16T06:01:50.506Z,12.13
2022-08-16T06:04:35.480Z,12.23
2022-08-16T06:07:08.208Z,12.90
2022-08-16T06:09:42.713Z,13.07
2022-08-16T06:12:10.846Z,11.93
2022-08-16T06:14:39.990Z,10.82
2022-08-16T06:17:06.946Z,11.85
2022-08-16T06:19:33.995Z,13.35
2022-08-16T06:22:02.303Z,11.88
2022-08-16T06:24:54.603Z,11.85
2022-08-16T06:27:15.171Z,12.10
2022-08-16T06:29:44.659Z,12.48
2022-08-16T06:32:27.651Z,11.77
2022-08-16T06:35:03.073Z,11.40
2022-08-16T06:37:37.191Z,11.77
2022-08-16T06:40:04.818Z,11.35
2022-08-16T06:42:49.669Z,11.38
2022-08-16T06:45:17.985Z,11.48
2022-08-16T06:47:53.830Z,11.43
2022-08-16T06:50:28.397Z,11.45
2022-08-16T06:52:58.376Z,12.20
2022-08-16T06:57:55.441Z,11.13
2022-08-16T07:00:24.168Z,11.55
2022-08-16T07:02:51.512Z,11.27
2022-08-16T07:05:18.852Z,12.40
2022-08-16T07:07:50.853Z,11.63
2022-08-16T07:10:18.361Z,12.00
2022-08-16T07:12:59.611Z,12.38
2022-08-16T07:15:31.787Z,12.80
2022-08-16T07:17:59.937Z,10.95
2022-08-16T07:20:47.152Z,12.50
2022-08-16T07:23:13.904Z,11.38
2022-08-16T07:25:40.779Z,11.57
2022-08-16T07:28:11.855Z,11.15
2022-08-16T07:33:16.223Z,11.30
2022-08-16T07:35:44.504Z,11.73
2022-08-16T07:38:19.502Z,12.57
2022-08-16T07:41:09.877Z,13.38
2022-08-16T07:43:32.905Z,11.02
2022-08-16T07:45:59.542Z,12.13
2022-08-16T07:48:28.185Z,10.90
2022-08-16T07:50:59.123Z,12.75
2022-08-16T07:53:29.180Z,12.82
2022-08-16T07:55:55.917Z,11.98
2022-08-16T07:58:35.235Z,11.40
2022-08-16T08:01:10.131Z,11.13
2022-08-16T08:03:39.923Z,11.75
2022-08-16T08:06:06.760Z,11.75
2022-08-16T08:08:50.360Z,12.32
2022-08-16T08:11:19.090Z,11.43
2022-08-16T08:13:45.464Z,12.77
2022-08-16T08:16:18.829Z,11.63
2022-08-16T08:18:50.250Z,12.20
2022-08-16T08:21:27.403Z,11.02
2022-08-16T08:24:12.423Z,11.02
2022-08-16T08:26:42.792Z,11.15
2022-08-16T08:29:11.949Z,10.88
2022-08-16T08:31:42.195Z,10.70
2022-08-16T08:34:08.640Z,10.77
2022-08-16T08:36:39.030Z,11.73
2022-08-16T08:39:12.848Z,11.98
2022-08-16T08:41:40.562Z,11.43
2022-08-16T08:44:28.648Z,10.98
2022-08-16T08:47:00.419Z,12.18
2022-08-16T08:49:46.704Z,13.80
2022-08-16T08:52:35.304Z,11.00
2022-08-16T08:55:10.410Z,10.45
2022-08-16T08:57:38.237Z,10.80
2022-08-16T09:00:13.131Z,10.75
2022-08-16T09:02:40.029Z,10.48
2022-08-16T09:05:15.283Z,10.70
2022-08-16T09:08:00.386Z,10.25
2022-08-16T09:10:29.873Z,10.68
2022-08-16T09:12:56.733Z,11.60
2022-08-16T09:15:23.970Z,10.60
2022-08-16T09:17:55.707Z,9.98
2022-08-16T09:20:26.102Z,11.25
2022-08-16T09:22:52.977Z,11.15
2022-08-16T09:25:26.336Z,11.85
2022-08-16T09:28:02.194Z,11.20
2022-08-16T09:30:34.789Z,11.23
2022-08-16T09:33:12.950Z,11.55
2022-08-16T09:35:42.572Z,12.57
2022-08-16T09:38:09.908Z,11.75
2022-08-16T09:40:42.369Z,11.75
2022-08-16T09:43:21.069Z,12.10
2022-08-16T09:45:57.708Z,12.25
2022-08-16T09:48:44.066Z,11.52
2022-08-16T09:51:11.466Z,11.23
2022-08-16T09:53:39.649Z,11.95
2022-08-16T09:56:14.752Z,11.27
2022-08-16T09:59:05.826Z,11.93
2022-08-16T10:01:31.794Z,11.95
2022-08-16T10:04:01.265Z,11.63
2022-08-16T10:06:33.971Z,10.90
2022-08-16T10:09:05.045Z,10.70
2022-08-16T10:11:52.229Z,11.00
2022-08-16T10:14:19.955Z,11.60
2022-08-16T10:16:51.170Z,11.27
2022-08-16T10:19:29.842Z,10.73
2022-08-16T10:21:58.767Z,10.85
2022-08-16T10:24:28.785Z,10.63
2022-08-16T10:27:20.112Z,11.35
2022-08-16T10:29:59.329Z,11.55
2022-08-16T10:32:30.331Z,12.40
2022-08-16T10:34:57.986Z,11.57
2022-08-16T10:37:32.601Z,11.10
2022-08-16T10:40:02.673Z,11.23
2022-08-16T10:42:29.159Z,11.60
2022-08-16T10:44:56.277Z,11.00
2022-08-16T10:47:23.008Z,11.18
2022-08-16T10:49:50.134Z,12.80
2022-08-16T10:52:18.453Z,11.73
2022-08-16T10:57:34.899Z,12.05
2022-08-16T11:00:04.845Z,11.85
2022-08-16T11:02:58.819Z,11.65
2022-08-16T11:05:18.151Z,12.10
2022-08-16T11:07:53.639Z,11.48
2022-08-16T11:16:00.790Z,12.20
2022-08-16T11:19:03.222Z,11.70
2022-08-16T11:21:28.763Z,13.15
2022-08-16T11:23:58.159Z,12.80
2022-08-16T11:26:25.436Z,11.95
2022-08-16T11:31:40.065Z,12.65
2022-08-16T11:34:12.361Z,13.65
2022-08-16T11:36:39.976Z,10.80
2022-08-16T11:41:49.234Z,11.30
2022-08-16T11:44:20.167Z,11.30
2022-08-16T11:46:48.262Z,11.30
2022-08-16T11:49:14.846Z,10.98
2022-08-16T11:51:44.410Z,11.45
2022-08-16T11:54:21.171Z,12.13
2022-08-16T11:56:57.665Z,11.30
2022-08-16T11:59:28.538Z,12.20
2022-08-16T12:02:00.031Z,12.40
2022-08-16T12:04:31.722Z,12.32
2022-08-16T12:06:58.694Z,10.93
2022-08-16T12:09:29.660Z,10.48
2022-08-16T12:11:57.394Z,17.27
2022-08-16T12:14:23.921Z,12.07
2022-08-16T12:16:55.546Z,15.85
2022-08-16T12:19:22.266Z,13.15
2022-08-16T12:21:59.986Z,12.15
2022-08-16T12:24:27.105Z,12.60
2022-08-16T12:26:56.930Z,13.25
2022-08-16T12:29:23.379Z,12.00
2022-08-16T12:32:00.653Z,12.77
2022-08-16T12:34:29.430Z,14.10
2022-08-16T12:36:56.086Z,11.20
2022-08-16T12:39:22.614Z,11.98
2022-08-16T12:41:49.608Z,12.13
2022-08-16T12:44:19.812Z,11.48
2022-08-16T12:47:06.322Z,13.63
2022-08-16T12:49:32.753Z,12.85
2022-08-16T12:52:09.408Z,14.52
2022-08-16T12:54:57.938Z,14.05
2022-08-16T12:57:25.509Z,13.50
2022-08-16T13:00:04.987Z,13.00
2022-08-16T13:02:33.312Z,14.70
2022-08-16T13:05:00.347Z,12.15
2022-08-16T13:07:27.152Z,10.88
2022-08-16T13:09:58.282Z,9.80
2022-08-16T13:12:26.765Z,8.15
2022-08-16T13:14:53.679Z,7.95
2022-08-16T13:17:21.834Z,8.88
2022-08-16T13:22:45.298Z,9.07
2022-08-16T13:25:18.968Z,7.93
2022-08-16T13:28:02.495Z,10.65
2022-08-16T13:30:35.864Z,9.98
2022-08-16T13:33:10.801Z,9.98
2022-08-16T13:35:42.733Z,9.68
2022-08-16T13:38:10.215Z,9.73
2022-08-16T13:40:48.035Z,9.75
2022-08-16T13:43:15.785Z,11.00
2022-08-16T13:45:44.656Z,10.43
2022-08-16T13:48:11.520Z,10.15
2022-08-16T13:50:52.018Z,9.85
2022-08-16T13:53:18.781Z,9.80
2022-08-16T13:55:58.498Z,9.77
2022-08-16T13:58:37.255Z,9.50
2022-08-16T14:01:12.318Z,8.15
2022-08-16T14:03:39.691Z,8.60
2022-08-16T14:06:07.275Z,7.63
2022-08-16T14:08:37.971Z,7.70
2022-08-16T14:11:12.074Z,8.27
2022-08-16T14:13:38.665Z,7.45
2022-08-16T14:16:08.179Z,7.50
2022-08-16T14:18:50.085Z,7.43
2022-08-16T14:21:19.485Z,7.32
2022-08-16T14:23:48.643Z,7.32
2022-08-16T14:26:15.183Z,7.07
2022-08-16T14:28:41.648Z,6.53
2022-08-16T14:31:09.384Z,5.82
2022-08-16T14:33:36.040Z,7.47
2022-08-16T14:36:02.447Z,5.80
2022-08-16T14:38:37.378Z,5.82
2022-08-16T14:41:04.062Z,6.25
2022-08-16T14:43:33.451Z,6.32
2022-08-16T14:46:01.109Z,6.57
2022-08-16T14:48:28.269Z,7.00
2022-08-16T14:50:55.663Z,6.47
2022-08-16T14:53:23.514Z,6.57
2022-08-16T14:55:49.918Z,6.40
2022-08-16T14:58:19.564Z,6.88
2022-08-16T15:00:46.677Z,7.07
2022-08-16T15:03:13.061Z,7.25
2022-08-16T15:05:41.430Z,6.75
2022-08-16T15:08:08.393Z,6.38
2022-08-16T15:10:34.925Z,6.65
2022-08-16T15:13:09.602Z,5.85
2022-08-16T15:15:37.278Z,6.03
2022-08-16T15:18:04.639Z,5.78
2022-08-16T15:20:33.153Z,6.50
2022-08-16T15:23:01.377Z,5.68
2022-08-16T15:25:30.034Z,5.28
2022-08-16T15:27:58.627Z,5.72
2022-08-16T15:30:59.724Z,5.82
2022-08-16T15:33:17.352Z,5.85
2022-08-16T15:35:44.354Z,5.90
2022-08-16T15:38:10.765Z,6.10
2022-08-16T15:40:59.054Z,6.55
2022-08-16T15:43:33.876Z,6.95
2022-08-16T15:46:35.124Z,6.57
2022-08-16T15:49:12.947Z,6.93
2022-08-16T15:51:40.140Z,7.15
2022-08-16T15:54:29.761Z,6.97
2022-08-16T15:56:55.174Z,6.95
2022-08-16T15:59:26.946Z,7.40
2022-08-16T16:01:53.971Z,7.05
2022-08-16T16:04:22.814Z,6.90
2022-08-16T16:06:55.186Z,6.37
2022-08-16T16:09:36.530Z,6.65
2022-08-16T16:12:16.221Z,6.50
2022-08-16T16:14:51.029Z,6.63
2022-08-16T16:17:17.542Z,6.68
2022-08-16T16:19:43.982Z,7.28
2022-08-16T16:22:10.752Z,7.25
2022-08-16T16:24:44.418Z,7.68
2022-08-16T16:27:10.785Z,6.90
2022-08-16T16:29:40.272Z,7.38
2022-08-16T16:32:07.605Z,7.40
2022-08-16T16:34:35.725Z,7.40
2022-08-16T16:37:02.619Z,7.65
2022-08-16T16:39:31.680Z,7.63
2022-08-16T16:41:59.557Z,7.30
2022-08-16T16:44:33.598Z,7.22
2022-08-16T16:47:02.904Z,7.95
2022-08-16T16:49:29.298Z,8.27
2022-08-16T16:52:06.608Z,7.68
2022-08-16T16:54:35.501Z,7.43
2022-08-16T16:57:02.312Z,8.30
2022-08-16T16:59:28.862Z,8.13
2022-08-16T17:01:57.407Z,9.18
2022-08-16T17:04:32.254Z,9.27
2022-08-16T17:06:59.914Z,8.75
2022-08-16T17:09:26.428Z,8.40
2022-08-16T17:11:55.879Z,9.18
2022-08-16T17:14:32.061Z,9.80
2022-08-16T17:17:00.426Z,9.82
2022-08-16T17:19:31.827Z,9.07
2022-08-16T17:21:58.707Z,10.25
2022-08-16T17:24:39.502Z,10.90
2022-08-16T17:27:07.446Z,10.93
2022-08-16T17:29:34.692Z,10.85
2022-08-16T17:32:34.050Z,10.40
2022-08-16T17:35:03.020Z,11.27
2022-08-16T17:37:50.917Z,11.50
2022-08-16T17:40:40.848Z,10.63
2022-08-16T17:43:05.612Z,12.18
2022-08-16T17:45:33.090Z,12.10
2022-08-16T17:47:59.780Z,11.35
2022-08-16T17:50:29.701Z,11.77
2022-08-16T17:52:57.120Z,12.10
2022-08-16T17:55:27.921Z,12.02
2022-08-16T18:00:21.601Z,11.93
2022-08-16T18:02:50.316Z,13.10
2022-08-16T18:05:17.161Z,12.48
2022-08-16T18:07:47.242Z,12.70
2022-08-16T18:10:32.761Z,13.48
2022-08-16T18:13:02.034Z,13.07
2022-08-16T18:15:28.843Z,13.50
2022-08-16T18:17:55.232Z,12.57
2022-08-16T18:20:41.144Z,14.18
2022-08-16T18:23:10.444Z,13.20
2022-08-16T18:25:47.825Z,13.75
2022-08-16T18:28:14.668Z,13.73
2022-08-16T18:30:41.102Z,14.02
2022-08-16T18:33:07.842Z,14.13
2022-08-16T18:35:34.631Z,13.30
2022-08-16T18:38:01.021Z,15.27
2022-08-16T18:40:27.788Z,14.00
2022-08-16T18:42:56.016Z,14.40
2022-08-16T18:45:22.810Z,15.90
2022-08-16T18:47:49.259Z,14.70
2022-08-16T18:50:15.848Z,15.07
2022-08-16T18:52:50.088Z,15.43
2022-08-16T18:55:16.706Z,14.82
2022-08-16T18:57:44.742Z,15.05
2022-08-16T19:00:12.608Z,15.43
2022-08-16T19:02:57.441Z,16.10
2022-08-16T19:05:26.671Z,16.33
2022-08-16T19:07:53.101Z,16.27
2022-08-16T19:10:19.613Z,16.25
2022-08-16T19:12:45.989Z,17.02
2022-08-16T19:15:17.525Z,17.05
2022-08-16T19:17:45.848Z,16.38
2022-08-16T19:20:13.023Z,16.27
2022-08-16T19:23:02.121Z,17.00
2022-08-16T19:25:47.493Z,15.93
2022-08-16T19:28:51.910Z,15.38
2022-08-16T19:31:03.266Z,17.35
2022-08-16T19:33:29.710Z,16.25
2022-08-16T19:35:56.129Z,16.35
2022-08-16T19:38:22.681Z,16.90
2022-08-16T19:40:49.204Z,16.45
2022-08-16T19:43:15.626Z,16.83
2022-08-16T19:45:45.981Z,17.30
2022-08-16T19:50:39.148Z,17.30
2022-08-16T19:53:12.885Z,17.77
2022-08-16T19:55:45.605Z,16.88
2022-08-16T19:58:13.784Z,18.23
2022-08-16T20:00:43.019Z,18.95
2022-08-16T20:03:11.585Z,18.52
2022-08-16T20:05:38.208Z,18.38
2022-08-16T20:08:05.970Z,18.42
2022-08-16T20:10:32.388Z,18.90
2022-08-16T20:13:02.458Z,19.30
2022-08-16T20:15:30.488Z,18.48
2022-08-16T20:18:00.256Z,19.80
2022-08-16T20:20:27.395Z,19.88
2022-08-16T20:22:54.724Z,18.60
2022-08-16T20:25:29.969Z,18.70
2022-08-16T20:27:57.948Z,19.48
2022-08-16T20:30:26.827Z,20.80
2022-08-16T20:32:53.720Z,19.92
2022-08-16T20:35:21.795Z,19.90
2022-08-16T20:37:48.309Z,19.50
2022-08-16T20:40:34.055Z,20.88
2022-08-16T20:43:06.754Z,19.95
2022-08-16T20:45:33.722Z,19.10
2022-08-16T20:48:00.135Z,19.38
2022-08-16T20:50:28.625Z,19.75
2022-08-16T20:52:56.058Z,18.80
2022-08-16T20:55:23.697Z,19.27
2022-08-16T20:57:55.261Z,18.17
2022-08-16T21:00:21.677Z,19.50
2022-08-16T21:02:48.565Z,19.13
2022-08-16T21:05:22.778Z,19.17
2022-08-16T21:07:51.798Z,17.25
2022-08-16T21:10:21.104Z,20.00
2022-08-16T21:12:52.724Z,18.23
2022-08-16T21:15:20.632Z,17.92
2022-08-16T21:17:47.027Z,17.58
2022-08-16T21:20:13.552Z,17.05
2022-08-16T21:22:40.212Z,17.40
2022-08-16T21:25:07.599Z,17.50
2022-08-16T21:27:34.949Z,16.58
2022-08-16T21:30:12.857Z,17.13
2022-08-16T21:32:43.994Z,16.73
2022-08-16T21:35:12.620Z,16.77
2022-08-16T21:37:39.238Z,17.83
2022-08-16T21:40:06.723Z,17.25
2022-08-16T21:42:36.267Z,17.65
2022-08-16T21:45:03.642Z,18.53
2022-08-16T21:47:30.033Z,17.10
2022-08-16T21:49:56.399Z,17.00
2022-08-16T21:52:26.232Z,17.25
2022-08-16T21:54:56.271Z,16.65
2022-08-16T21:57:23.046Z,17.13
2022-08-16T21:59:53.516Z,16.02
2022-08-16T22:02:20.908Z,16.92
2022-08-16T22:04:47.813Z,16.35
2022-08-16T22:07:15.586Z,14.00
2022-08-16T22:09:42.657Z,13.20
2022-08-16T22:12:09.409Z,13.68
2022-08-16T22:14:35.934Z,12.13
2022-08-16T22:17:02.375Z,13.30
2022-08-16T22:19:28.808Z,11.80
2022-08-16T22:21:55.763Z,12.68
2022-08-16T22:24:22.217Z,13.05
2022-08-16T22:26:52.306Z,12.40
2022-08-16T22:29:19.192Z,12.25
2022-08-16T22:31:45.677Z,12.10
2022-08-16T22:34:12.777Z,11.57
2022-08-16T22:36:39.495Z,11.25
2022-08-16T22:39:07.677Z,11.38
2022-08-16T22:41:35.064Z,12.10
2022-08-16T22:44:03.728Z,11.10
2022-08-16T22:46:30.394Z,10.38
2022-08-16T22:48:57.443Z,10.30
2022-08-16T22:51:25.428Z,11.38
2022-08-16T22:53:52.795Z,11.30
2022-08-16T22:56:19.738Z,11.07
2022-08-16T22:58:46.336Z,11.13
2022-08-16T23:01:14.651Z,10.68
2022-08-16T23:03:41.766Z,11.48
2022-08-16T23:06:08.933Z,11.13
2022-08-16T23:08:39.362Z,11.38
2022-08-16T23:11:10.904Z,12.48
2022-08-16T23:13:37.325Z,12.02
2022-08-16T23:16:10.646Z,10.90
2022-08-16T23:18:38.337Z,11.80
2022-08-16T23:21:07.237Z,11.98
2022-08-16T23:23:33.604Z,13.00
2022-08-16T23:26:00.181Z,12.07
2022-08-16T23:28:30.397Z,12.65
2022-08-16T23:30:57.708Z,12.48
2022-08-16T23:33:25.342Z,12.25
2022-08-16T23:35:53.267Z,12.20
2022-08-16T23:38:38.526Z,12.32
2022-08-16T23:41:09.083Z,13.43
2022-08-16T23:43:43.091Z,12.27
2022-08-16T23:46:15.509Z,12.80
2022-08-16T23:49:56.345Z,13.70
2022-08-16T23:51:29.052Z,13.70
2022-08-16T23:53:55.835Z,13.75
2022-08-16T23:56:22.256Z,13.55
2022-08-16T23:58:54.389Z,14.70
